createdAt,value
2023-01-20T00:01:25.584Z,2.80
2023-01-20T00:03:54.026Z,3.30
2023-01-20T00:06:22.152Z,3.70
2023-01-20T00:08:53.065Z,3.20
2023-01-20T00:11:20.871Z,3.20
2023-01-20T00:13:48.792Z,4.10
2023-01-20T00:16:15.740Z,5.90
2023-01-20T00:18:42.436Z,6.00
2023-01-20T00:21:12.039Z,4.50
2023-01-20T00:23:40.418Z,3.70
2023-01-20T00:26:09.798Z,5.70
2023-01-20T00:28:37.173Z,4.30
2023-01-20T00:31:31.179Z,4.20
2023-01-20T00:33:59.912Z,2.90
2023-01-20T00:36:31.139Z,3.10
2023-01-20T00:38:58.459Z,2.80
2023-01-20T00:41:25.165Z,2.10
2023-01-20T00:43:51.833Z,2.00
2023-01-20T00:46:18.610Z,1.90
2023-01-20T00:48:45.347Z,1.90
2023-01-20T00:51:13.089Z,1.70
2023-01-20T00:53:39.834Z,2.20
2023-01-20T00:56:07.092Z,1.90
2023-01-20T00:58:34.391Z,1.80
2023-01-20T01:01:01.882Z,1.80
2023-01-20T01:03:28.988Z,2.00
2023-01-20T01:06:06.154Z,2.10
2023-01-20T01:08:33.902Z,2.00
2023-01-20T01:11:00.529Z,2.00
2023-01-20T01:13:27.190Z,1.90
2023-01-20T01:15:53.970Z,1.80
2023-01-20T01:18:20.627Z,2.10
2023-01-20T01:20:47.360Z,2.00
2023-01-20T01:23:14.131Z,1.90
2023-01-20T01:25:40.797Z,1.70
2023-01-20T01:28:07.489Z,1.80
2023-01-20T01:30:34.412Z,1.90
2023-01-20T01:33:01.080Z,1.80
2023-01-20T01:35:27.752Z,2.10
2023-01-20T01:37:54.470Z,2.00
2023-01-20T01:40:21.172Z,2.40
2023-01-20T01:42:47.910Z,2.00
2023-01-20T01:45:21.211Z,2.70
2023-01-20T01:47:53.024Z,3.10
2023-01-20T01:50:45.742Z,2.30
2023-01-20T01:53:13.842Z,2.00
2023-01-20T01:55:47.454Z,2.20
2023-01-20T01:58:17.096Z,1.90
2023-01-20T02:00:44.390Z,2.00
2023-01-20T02:03:11.853Z,2.60
2023-01-20T02:05:39.578Z,3.10
2023-01-20T02:08:08.142Z,2.90
2023-01-20T02:10:35.176Z,2.20
2023-01-20T02:13:02.375Z,2.00
2023-01-20T02:15:41.997Z,2.00
2023-01-20T02:18:38.334Z,1.80
2023-01-20T02:21:30.226Z,2.00
2023-01-20T02:24:36.398Z,1.80
2023-01-20T02:27:23.758Z,1.80
2023-01-20T02:30:06.737Z,1.60
2023-01-20T02:32:49.582Z,1.60
2023-01-20T02:35:48.772Z,1.80
2023-01-20T02:38:23.992Z,1.80
2023-01-20T02:41:08.300Z,1.90
2023-01-20T02:43:49.051Z,1.80
2023-01-20T02:47:01.227Z,2.20
2023-01-20T02:49:36.396Z,1.70
2023-01-20T02:52:15.780Z,1.60
2023-01-20T02:54:48.122Z,1.70
2023-01-20T02:57:19.973Z,2.00
2023-01-20T02:59:51.710Z,1.70
2023-01-20T03:02:23.056Z,1.60
2023-01-20T03:04:59.153Z,1.50
2023-01-20T03:07:29.422Z,1.60
2023-01-20T03:09:58.659Z,1.70
2023-01-20T03:12:35.367Z,1.80
2023-01-20T03:15:02.737Z,1.70
2023-01-20T03:17:29.490Z,2.20
2023-01-20T03:19:56.378Z,2.40
2023-01-20T03:22:23.289Z,2.40
2023-01-20T03:24:50.464Z,1.90
2023-01-20T03:27:17.329Z,1.80
2023-01-20T03:29:44.077Z,1.90
2023-01-20T03:32:12.354Z,2.40
2023-01-20T03:34:41.573Z,3.30
2023-01-20T03:37:10.780Z,2.70
2023-01-20T03:39:39.855Z,2.40
2023-01-20T03:42:21.553Z,2.20
2023-01-20T03:45:23.661Z,2.20
2023-01-20T03:48:17.795Z,2.00
2023-01-20T03:50:50.395Z,2.00
2023-01-20T03:53:37.512Z,1.80
2023-01-20T03:56:24.609Z,1.90
2023-01-20T03:58:53.594Z,2.10
2023-01-20T04:01:34.065Z,2.30
2023-01-20T04:04:01.399Z,1.80
2023-01-20T04:06:30.176Z,1.60
2023-01-20T04:09:15.564Z,1.50
2023-01-20T04:11:42.373Z,1.50
2023-01-20T04:14:09.858Z,1.70
2023-01-20T04:16:37.006Z,2.60
2023-01-20T04:19:04.013Z,2.20
2023-01-20T04:21:35.393Z,2.20
2023-01-20T04:24:16.576Z,3.20
2023-01-20T04:26:43.238Z,2.20
2023-01-20T04:29:12.947Z,2.30
2023-01-20T04:31:40.116Z,2.00
2023-01-20T04:34:07.281Z,1.80
2023-01-20T04:36:34.002Z,1.70
2023-01-20T04:39:00.657Z,2.00
2023-01-20T04:41:27.536Z,1.70
2023-01-20T04:43:56.460Z,1.70
2023-01-20T04:46:23.163Z,2.70
2023-01-20T04:48:50.048Z,2.50
2023-01-20T04:51:17.843Z,2.10
2023-01-20T04:53:44.551Z,3.00
2023-01-20T04:56:12.972Z,2.20
2023-01-20T04:58:48.144Z,1.80
2023-01-20T05:01:14.910Z,2.80
2023-01-20T05:03:41.689Z,3.00
2023-01-20T05:06:10.799Z,2.50
2023-01-20T05:08:37.454Z,2.20
2023-01-20T05:11:04.718Z,2.40
2023-01-20T05:13:31.800Z,3.00
2023-01-20T05:16:00.122Z,2.50
2023-01-20T05:18:28.971Z,3.10
2023-01-20T05:20:55.604Z,4.20
2023-01-20T05:23:22.356Z,3.60
2023-01-20T05:25:53.207Z,3.00
2023-01-20T05:28:20.220Z,4.00
2023-01-20T05:30:48.527Z,3.20
2023-01-20T05:33:15.420Z,3.50
2023-01-20T05:35:42.083Z,3.00
2023-01-20T05:38:08.889Z,2.30
2023-01-20T05:40:35.603Z,2.30
2023-01-20T05:43:03.142Z,2.70
2023-01-20T05:45:30.610Z,3.40
2023-01-20T05:47:58.741Z,2.50
2023-01-20T05:50:28.971Z,2.30
2023-01-20T05:52:56.011Z,2.00
2023-01-20T05:55:22.859Z,2.40
2023-01-20T05:57:49.527Z,2.20
2023-01-20T06:00:18.755Z,1.80
2023-01-20T06:02:45.802Z,2.60
2023-01-20T06:05:12.991Z,3.00
2023-01-20T06:07:39.774Z,2.40
2023-01-20T06:10:08.649Z,2.70
2023-01-20T06:12:35.505Z,3.20
2023-01-20T06:15:02.503Z,2.20
2023-01-20T06:17:29.215Z,2.10
2023-01-20T06:19:55.867Z,2.90
2023-01-20T06:22:24.729Z,2.20
2023-01-20T06:24:52.087Z,1.80
2023-01-20T06:27:19.830Z,2.60
2023-01-20T06:29:46.587Z,2.20
2023-01-20T06:32:13.310Z,2.30
2023-01-20T06:34:41.059Z,2.30
2023-01-20T06:37:07.678Z,1.90
2023-01-20T06:39:34.377Z,1.70
2023-01-20T06:42:01.309Z,1.80
2023-01-20T06:44:28.043Z,1.90
2023-01-20T06:46:55.220Z,2.00
2023-01-20T06:49:22.041Z,2.50
2023-01-20T06:51:52.433Z,2.50
2023-01-20T06:54:19.079Z,2.30
2023-01-20T06:56:45.938Z,3.70
2023-01-20T06:59:13.223Z,3.50
2023-01-20T07:01:40.433Z,3.40
2023-01-20T07:04:08.241Z,3.60
2023-01-20T07:06:39.659Z,4.20
2023-01-20T07:09:09.116Z,3.70
2023-01-20T07:11:37.319Z,3.80
2023-01-20T07:14:05.417Z,4.50
2023-01-20T07:16:32.761Z,4.10
2023-01-20T07:18:59.507Z,3.30
2023-01-20T07:21:26.773Z,3.20
2023-01-20T07:23:53.701Z,3.30
2023-01-20T07:26:22.904Z,4.70
2023-01-20T07:28:50.079Z,3.80
2023-01-20T07:31:22.599Z,4.60
2023-01-20T07:33:50.197Z,3.70
2023-01-20T07:36:17.774Z,4.00
2023-01-20T07:38:48.431Z,3.20
2023-01-20T07:41:19.490Z,2.80
2023-01-20T07:43:48.679Z,3.10
2023-01-20T07:46:15.389Z,3.10
2023-01-20T07:48:42.670Z,3.60
2023-01-20T07:51:11.840Z,3.30
2023-01-20T07:53:41.240Z,3.20
2023-01-20T07:56:16.456Z,3.40
2023-01-20T07:58:47.658Z,2.80
2023-01-20T08:01:16.240Z,2.60
2023-01-20T08:03:44.394Z,3.00
2023-01-20T08:06:14.734Z,2.70
2023-01-20T08:08:42.823Z,2.50
2023-01-20T08:11:12.335Z,2.40
2023-01-20T08:13:39.572Z,2.60
2023-01-20T08:16:08.945Z,3.40
2023-01-20T08:18:37.020Z,3.20
2023-01-20T08:21:06.836Z,3.30
2023-01-20T08:23:34.895Z,2.90
2023-01-20T08:26:06.572Z,3.40
2023-01-20T08:28:37.510Z,3.40
2023-01-20T08:31:15.452Z,3.10
2023-01-20T08:33:43.426Z,4.10
2023-01-20T08:36:13.341Z,3.00
2023-01-20T08:38:40.741Z,2.90
2023-01-20T08:41:17.246Z,2.70
2023-01-20T08:43:44.355Z,3.00
2023-01-20T08:46:14.011Z,3.40
2023-01-20T08:48:42.120Z,3.10
2023-01-20T08:51:15.833Z,2.80
2023-01-20T08:53:42.977Z,2.60
2023-01-20T08:56:11.328Z,2.70
2023-01-20T08:58:38.420Z,3.00
2023-01-20T09:01:13.742Z,3.50
2023-01-20T09:03:42.064Z,2.90
2023-01-20T09:06:12.800Z,2.50
2023-01-20T09:08:39.526Z,2.30
2023-01-20T09:11:12.936Z,2.20
2023-01-20T09:13:40.278Z,2.60
2023-01-20T09:16:07.381Z,2.30
2023-01-20T09:18:35.103Z,2.80
2023-01-20T09:21:06.609Z,2.70
2023-01-20T09:23:35.636Z,3.50
2023-01-20T09:26:04.573Z,2.50
2023-01-20T09:28:31.460Z,2.50
2023-01-20T09:31:00.236Z,2.60
2023-01-20T09:33:27.426Z,2.20
2023-01-20T09:35:55.511Z,2.20
2023-01-20T09:38:41.249Z,2.10
2023-01-20T09:41:49.274Z,2.10
2023-01-20T09:44:43.779Z,1.90
2023-01-20T09:47:31.713Z,1.80
2023-01-20T09:50:19.997Z,1.90
2023-01-20T09:53:05.210Z,1.80
2023-01-20T09:55:39.803Z,1.70
2023-01-20T09:58:14.997Z,1.70
2023-01-20T10:00:47.477Z,1.70
2023-01-20T10:03:24.672Z,1.70
2023-01-20T10:05:55.011Z,1.60
2023-01-20T10:08:32.891Z,1.60
2023-01-20T10:11:22.094Z,1.50
2023-01-20T10:13:52.151Z,1.40
2023-01-20T10:16:34.950Z,1.50
2023-01-20T10:19:08.309Z,1.50
2023-01-20T10:22:03.655Z,1.50
2023-01-20T10:24:39.679Z,1.60
2023-01-20T10:27:06.332Z,2.00
2023-01-20T10:29:38.256Z,1.90
2023-01-20T10:32:32.181Z,1.80
2023-01-20T10:35:07.279Z,1.90
2023-01-20T10:37:35.979Z,1.90
2023-01-20T10:40:40.290Z,1.90
2023-01-20T10:43:17.550Z,1.80
2023-01-20T10:46:16.545Z,1.80
2023-01-20T10:49:02.704Z,1.70
2023-01-20T10:51:44.171Z,1.70
2023-01-20T10:54:29.445Z,1.80
2023-01-20T10:56:58.937Z,1.80
2023-01-20T10:59:37.540Z,1.80
2023-01-20T11:02:20.088Z,3.20
2023-01-20T11:04:55.073Z,2.60
2023-01-20T11:07:21.764Z,2.10
2023-01-20T11:09:49.058Z,2.00
2023-01-20T11:12:22.753Z,2.00
2023-01-20T11:14:49.824Z,2.20
2023-01-20T11:17:18.748Z,2.00
2023-01-20T11:19:51.791Z,2.20
2023-01-20T11:22:23.993Z,2.10
2023-01-20T11:24:55.950Z,2.20
2023-01-20T11:27:26.933Z,2.40
2023-01-20T11:30:00.084Z,2.30
2023-01-20T11:32:36.185Z,3.20
2023-01-20T11:35:20.899Z,3.10
2023-01-20T11:37:47.697Z,4.10
2023-01-20T11:40:25.156Z,3.60
2023-01-20T11:42:53.461Z,3.60
2023-01-20T11:45:27.719Z,3.10
2023-01-20T11:48:00.757Z,3.00
2023-01-20T11:50:30.181Z,2.80
2023-01-20T11:53:13.491Z,2.90
2023-01-20T11:55:49.019Z,2.80
2023-01-20T11:58:21.974Z,2.90
2023-01-20T12:00:51.379Z,2.90
2023-01-20T12:03:57.689Z,2.80
2023-01-20T12:06:49.330Z,2.80
2023-01-20T12:09:20.144Z,2.50
2023-01-20T12:12:01.234Z,2.60
2023-01-20T12:14:37.080Z,2.60
2023-01-20T12:17:06.996Z,2.60
2023-01-20T12:19:55.696Z,2.60
2023-01-20T12:23:01.360Z,2.60
2023-01-20T12:25:33.872Z,2.60
2023-01-20T12:28:12.629Z,2.50
2023-01-20T12:31:13.668Z,3.00
2023-01-20T12:33:45.472Z,3.10
2023-01-20T12:36:50.083Z,3.20
2023-01-20T12:39:19.845Z,2.80
2023-01-20T12:42:24.035Z,2.60
2023-01-20T12:44:58.600Z,2.60
2023-01-20T12:47:52.046Z,2.60
2023-01-20T12:50:52.487Z,2.70
2023-01-20T12:53:58.817Z,2.70
2023-01-20T12:56:37.097Z,2.80
2023-01-20T12:59:24.685Z,3.10
2023-01-20T13:02:08.240Z,3.30
2023-01-20T13:04:52.927Z,3.40
2023-01-20T13:07:56.331Z,3.20
2023-01-20T13:10:57.234Z,3.80
2023-01-20T13:13:56.076Z,3.60
2023-01-20T13:16:23.911Z,3.60
2023-01-20T13:19:08.663Z,3.30
2023-01-20T13:21:35.421Z,3.30
2023-01-20T13:24:06.182Z,3.80
2023-01-20T13:26:33.563Z,4.70
2023-01-20T13:29:00.710Z,4.20
2023-01-20T13:31:45.275Z,3.70
2023-01-20T13:34:24.300Z,3.60
2023-01-20T13:37:10.140Z,2.90
2023-01-20T13:39:47.399Z,2.70
2023-01-20T13:42:39.134Z,2.50
2023-01-20T13:45:12.331Z,2.30
2023-01-20T13:47:58.797Z,2.70
2023-01-20T13:50:38.271Z,2.70
2023-01-20T13:53:10.519Z,2.80
2023-01-20T13:55:44.036Z,2.90
2023-01-20T13:58:21.943Z,2.90
2023-01-20T14:00:50.742Z,2.70
2023-01-20T14:03:30.728Z,2.60
2023-01-20T14:06:03.158Z,2.90
2023-01-20T14:08:32.568Z,3.20
2023-01-20T14:11:11.234Z,3.10
2023-01-20T14:13:38.651Z,2.90
2023-01-20T14:16:06.062Z,2.60
2023-01-20T14:18:33.564Z,2.70
2023-01-20T14:21:04.245Z,3.00
2023-01-20T14:23:35.425Z,3.00
2023-01-20T14:26:04.367Z,3.00
2023-01-20T14:28:31.741Z,3.10
2023-01-20T14:31:14.508Z,3.00
2023-01-20T14:33:58.984Z,2.90
2023-01-20T14:36:30.059Z,2.80
2023-01-20T14:39:02.837Z,2.80
2023-01-20T14:41:34.459Z,2.90
2023-01-20T14:44:02.513Z,2.70
2023-01-20T14:46:32.545Z,2.80
2023-01-20T14:49:00.210Z,2.90
2023-01-20T14:51:27.354Z,2.90
2023-01-20T14:54:31.158Z,3.00
2023-01-20T14:56:59.159Z,3.00
2023-01-20T14:59:26.555Z,3.40
2023-01-20T15:02:04.419Z,2.80
2023-01-20T15:04:38.010Z,2.90
2023-01-20T15:07:05.808Z,2.80
2023-01-20T15:09:34.971Z,2.80
2023-01-20T15:12:35.405Z,2.80
2023-01-20T15:15:17.202Z,3.10
2023-01-20T15:18:11.890Z,2.70
2023-01-20T15:20:42.751Z,2.60
2023-01-20T15:23:21.520Z,2.80
2023-01-20T15:25:52.550Z,2.70
2023-01-20T15:28:29.783Z,2.70
2023-01-20T15:30:58.545Z,2.70
2023-01-20T15:33:25.917Z,2.90
2023-01-20T15:35:59.911Z,2.70
2023-01-20T15:38:30.594Z,2.70
2023-01-20T15:40:57.860Z,2.80
2023-01-20T15:43:24.769Z,2.70
2023-01-20T15:45:51.418Z,3.00
2023-01-20T15:48:21.622Z,3.00
2023-01-20T15:50:49.022Z,2.70
2023-01-20T15:53:16.059Z,2.80
2023-01-20T15:55:48.869Z,2.60
2023-01-20T15:58:30.318Z,2.70
2023-01-20T16:00:58.237Z,2.80
2023-01-20T16:03:26.641Z,2.70
2023-01-20T16:05:55.331Z,2.70
2023-01-20T16:08:42.012Z,2.80
2023-01-20T16:11:10.301Z,2.80
2023-01-20T16:13:38.586Z,2.60
2023-01-20T16:16:13.555Z,2.70
2023-01-20T16:18:41.135Z,2.80
2023-01-20T16:21:10.583Z,2.70
2023-01-20T16:23:37.399Z,2.80
2023-01-20T16:26:18.558Z,2.70
2023-01-20T16:28:45.330Z,2.60
2023-01-20T16:31:13.645Z,2.70
2023-01-20T16:33:40.428Z,2.70
2023-01-20T16:36:16.094Z,2.70
2023-01-20T16:38:43.536Z,2.90
2023-01-20T16:41:23.440Z,3.20
2023-01-20T16:43:51.236Z,2.90
2023-01-20T16:46:23.122Z,3.10
2023-01-20T16:48:50.527Z,2.90
2023-01-20T16:51:19.823Z,3.70
2023-01-20T16:53:46.807Z,4.00
2023-01-20T16:56:15.321Z,4.20
2023-01-20T16:58:42.849Z,3.90
2023-01-20T17:01:12.708Z,4.10
2023-01-20T17:03:40.819Z,4.10
2023-01-20T17:06:17.522Z,5.10
2023-01-20T17:08:49.981Z,4.40
2023-01-20T17:11:21.451Z,4.30
2023-01-20T17:13:50.629Z,4.20
2023-01-20T17:16:17.966Z,3.90
2023-01-20T17:18:48.215Z,4.40
2023-01-20T17:21:15.198Z,3.70
2023-01-20T17:23:43.293Z,4.10
2023-01-20T17:26:10.140Z,4.10
2023-01-20T17:28:36.901Z,3.70
2023-01-20T17:31:06.274Z,4.40
2023-01-20T17:33:33.573Z,4.30
2023-01-20T17:36:02.227Z,4.00
2023-01-20T17:38:30.516Z,4.40
2023-01-20T17:41:05.396Z,4.30
2023-01-20T17:43:37.373Z,4.20
2023-01-20T17:46:15.010Z,4.20
2023-01-20T17:48:42.210Z,3.90
2023-01-20T17:51:17.300Z,3.80
2023-01-20T17:53:44.498Z,4.40
2023-01-20T17:56:18.283Z,4.30
2023-01-20T17:58:46.135Z,4.60
2023-01-20T18:01:24.567Z,4.20
2023-01-20T18:03:53.572Z,4.50
2023-01-20T18:06:22.690Z,5.30
2023-01-20T18:08:57.456Z,4.40
2023-01-20T18:11:25.705Z,4.90
2023-01-20T18:13:55.118Z,4.90
2023-01-20T18:16:23.653Z,4.60
2023-01-20T18:18:50.649Z,4.50
2023-01-20T18:21:21.786Z,4.70
2023-01-20T18:23:50.014Z,4.90
2023-01-20T18:26:20.782Z,5.30
2023-01-20T18:28:47.944Z,5.30
2023-01-20T18:31:20.014Z,5.10
2023-01-20T18:33:49.517Z,5.30
2023-01-20T18:36:25.865Z,5.50
2023-01-20T18:38:54.244Z,5.10
2023-01-20T18:41:21.659Z,5.00
2023-01-20T18:43:49.218Z,4.90
2023-01-20T18:46:16.618Z,4.60
2023-01-20T18:48:45.962Z,4.70
2023-01-20T18:51:15.895Z,4.60
2023-01-20T18:53:44.192Z,4.70
2023-01-20T18:56:14.153Z,4.60
2023-01-20T18:58:45.658Z,4.00
2023-01-20T19:01:19.465Z,4.30
2023-01-20T19:03:49.461Z,4.50
2023-01-20T19:06:18.852Z,4.60
2023-01-20T19:08:46.066Z,4.60
2023-01-20T19:11:19.795Z,4.10
2023-01-20T19:13:49.850Z,4.20
2023-01-20T19:16:19.334Z,4.40
2023-01-20T19:18:51.402Z,4.00
2023-01-20T19:21:18.682Z,4.30
2023-01-20T19:23:56.608Z,4.20
2023-01-20T19:26:25.709Z,4.20
2023-01-20T19:28:57.079Z,4.40
2023-01-20T19:31:24.539Z,4.20
2023-01-20T19:33:51.462Z,4.50
2023-01-20T19:36:20.041Z,4.50
2023-01-20T19:38:47.112Z,4.20
2023-01-20T19:41:16.799Z,4.20
2023-01-20T19:43:44.814Z,4.50
2023-01-20T19:46:18.657Z,4.70
2023-01-20T19:48:45.723Z,4.90
2023-01-20T19:51:15.284Z,5.20
2023-01-20T19:53:43.953Z,5.10
2023-01-20T19:56:16.365Z,5.00
2023-01-20T19:58:44.023Z,4.70
2023-01-20T20:01:16.187Z,4.60
2023-01-20T20:03:43.972Z,4.20
2023-01-20T20:06:24.960Z,4.00
2023-01-20T20:08:52.689Z,3.20
2023-01-20T20:11:19.594Z,3.40
2023-01-20T20:13:46.337Z,4.20
2023-01-20T20:16:13.104Z,4.30
2023-01-20T20:18:39.919Z,4.20
2023-01-20T20:21:08.328Z,3.90
2023-01-20T20:23:36.024Z,4.20
2023-01-20T20:26:02.742Z,4.40
2023-01-20T20:28:29.874Z,4.00
2023-01-20T20:31:03.422Z,3.80
2023-01-20T20:33:30.074Z,3.80
2023-01-20T20:35:56.846Z,3.40
2023-01-20T20:38:23.723Z,4.10
2023-01-20T20:41:00.541Z,3.70
2023-01-20T20:43:28.052Z,3.40
2023-01-20T20:46:01.223Z,3.80
2023-01-20T20:48:28.683Z,4.30
2023-01-20T20:50:56.470Z,3.50
2023-01-20T20:53:23.145Z,4.50
2023-01-20T20:55:53.906Z,3.80
2023-01-20T20:58:20.612Z,3.90
2023-01-20T21:00:51.490Z,4.40
2023-01-20T21:03:18.340Z,4.60
2023-01-20T21:05:48.806Z,4.20
2023-01-20T21:08:16.432Z,4.20
2023-01-20T21:10:43.376Z,4.30
2023-01-20T21:13:10.151Z,3.80
2023-01-20T21:15:40.554Z,3.80
2023-01-20T21:18:07.364Z,4.10
2023-01-20T21:20:34.366Z,4.80
2023-01-20T21:23:01.687Z,4.30
2023-01-20T21:25:28.684Z,4.90
2023-01-20T21:27:55.998Z,5.20
2023-01-20T21:30:22.683Z,5.30
2023-01-20T21:32:49.354Z,5.00
2023-01-20T21:35:16.084Z,4.90
2023-01-20T21:37:43.404Z,4.50
2023-01-20T21:40:10.787Z,4.40
2023-01-20T21:42:37.526Z,3.70
2023-01-20T21:45:05.617Z,3.80
2023-01-20T21:47:32.400Z,4.30
2023-01-20T21:50:18.254Z,4.00
2023-01-20T21:52:45.401Z,4.50
2023-01-20T21:55:19.239Z,4.30
2023-01-20T21:57:48.411Z,4.80
2023-01-20T22:00:17.853Z,4.80
2023-01-20T22:02:45.076Z,4.50
2023-01-20T22:05:13.009Z,4.90
2023-01-20T22:07:40.054Z,4.90
2023-01-20T22:10:09.571Z,4.90
2023-01-20T22:12:36.312Z,4.70
2023-01-20T22:15:03.786Z,4.50
2023-01-20T22:17:30.866Z,4.30
2023-01-20T22:19:57.638Z,4.20
2023-01-20T22:22:24.296Z,4.20
2023-01-20T22:24:51.092Z,4.20
2023-01-20T22:27:17.816Z,4.30
2023-01-20T22:29:44.550Z,4.30
2023-01-20T22:32:11.247Z,4.50
2023-01-20T22:34:37.865Z,4.50
2023-01-20T22:37:04.606Z,4.10
2023-01-20T22:39:31.351Z,3.80
2023-01-20T22:41:58.065Z,4.40
2023-01-20T22:44:27.154Z,3.70
2023-01-20T22:46:53.871Z,3.60
2023-01-20T22:49:20.643Z,3.60
2023-01-20T22:51:47.359Z,3.20
2023-01-20T22:54:14.106Z,2.60
2023-01-20T22:56:40.913Z,2.90
2023-01-20T22:59:07.577Z,3.00
2023-01-20T23:01:35.546Z,3.10
2023-01-20T23:04:04.973Z,2.70
2023-01-20T23:06:34.421Z,2.20
2023-01-20T23:09:03.751Z,1.30
2023-01-20T23:11:31.016Z,1.00
2023-01-20T23:13:58.214Z,0.90
2023-01-20T23:16:25.039Z,1.00
2023-01-20T23:18:52.386Z,0.90
2023-01-20T23:21:20.198Z,0.80
2023-01-20T23:23:47.264Z,0.80
2023-01-20T23:26:16.841Z,0.80
2023-01-20T23:28:45.321Z,1.00
2023-01-20T23:31:15.199Z,0.90
2023-01-20T23:33:43.838Z,0.70
2023-01-20T23:36:19.967Z,0.70
2023-01-20T23:38:46.993Z,0.70
2023-01-20T23:41:14.790Z,0.70
2023-01-20T23:43:41.975Z,0.60
2023-01-20T23:46:09.496Z,0.70
2023-01-20T23:48:36.901Z,0.50
2023-01-20T23:51:06.280Z,0.40
2023-01-20T23:53:36.266Z,0.40
2023-01-20T23:56:11.782Z,0.40
2023-01-20T23:58:39.381Z,0.40
